sensor_id;sensor_type;location;lat;lon;timestamp;P1;durP1;ratioP1;P2;durP2;ratioP2
60430;SDS011;46285;45.122;20.726;2023-06-19T00:04:22;13.75;;;10.40;;
60430;SDS011;46285;45.122;20.726;2023-06-19T00:14:23;17.17;;;10.20;;
60430;SDS011;46285;45.122;20.726;2023-06-19T00:24:24;13.32;;;11.10;;
60430;SDS011;46285;45.122;20.726;2023-06-19T00:34:25;16.52;;;11.75;;
60430;SDS011;46285;45.122;20.726;2023-06-19T00:44:27;16.25;;;12.05;;
60430;SDS011;46285;45.122;20.726;2023-06-19T00:54:29;18.10;;;13.35;;
60430;SDS011;46285;45.122;20.726;2023-06-19T01:04:31;16.17;;;13.55;;
60430;SDS011;46285;45.122;20.726;2023-06-19T01:14:36;20.70;;;14.85;;
60430;SDS011;46285;45.122;20.726;2023-06-19T01:24:39;18.27;;;15.02;;
60430;SDS011;46285;45.122;20.726;2023-06-19T01:34:41;21.15;;;17.35;;
60430;SDS011;46285;45.122;20.726;2023-06-19T01:44:42;20.33;;;18.13;;
60430;SDS011;46285;45.122;20.726;2023-06-19T01:54:44;22.48;;;18.48;;
60430;SDS011;46285;45.122;20.726;2023-06-19T02:04:46;27.85;;;21.40;;
60430;SDS011;46285;45.122;20.726;2023-06-19T02:14:47;25.45;;;21.33;;
60430;SDS011;46285;45.122;20.726;2023-06-19T02:24:48;26.30;;;21.75;;
60430;SDS011;46285;45.122;20.726;2023-06-19T02:34:49;22.80;;;19.88;;
60430;SDS011;46285;45.122;20.726;2023-06-19T02:44:50;26.60;;;19.58;;
60430;SDS011;46285;45.122;20.726;2023-06-19T02:54:51;26.70;;;22.83;;
60430;SDS011;46285;45.122;20.726;2023-06-19T03:04:53;24.00;;;20.58;;
60430;SDS011;46285;45.122;20.726;2023-06-19T03:14:54;26.70;;;21.55;;
60430;SDS011;46285;45.122;20.726;2023-06-19T03:24:57;28.45;;;21.15;;
60430;SDS011;46285;45.122;20.726;2023-06-19T03:35:00;23.25;;;20.77;;
60430;SDS011;46285;45.122;20.726;2023-06-19T03:45:02;23.60;;;20.15;;
60430;SDS011;46285;45.122;20.726;2023-06-19T03:55:04;23.90;;;19.55;;
60430;SDS011;46285;45.122;20.726;2023-06-19T04:05:05;21.33;;;17.13;;
60430;SDS011;46285;45.122;20.726;2023-06-19T04:15:07;28.85;;;26.08;;
60430;SDS011;46285;45.122;20.726;2023-06-19T04:25:09;22.60;;;15.73;;
60430;SDS011;46285;45.122;20.726;2023-06-19T04:35:10;21.13;;;13.48;;
60430;SDS011;46285;45.122;20.726;2023-06-19T04:45:12;15.55;;;10.63;;
60430;SDS011;46285;45.122;20.726;2023-06-19T04:55:13;17.55;;;11.43;;
60430;SDS011;46285;45.122;20.726;2023-06-19T05:05:14;14.02;;;10.93;;
60430;SDS011;46285;45.122;20.726;2023-06-19T05:15:16;14.40;;;11.10;;
60430;SDS011;46285;45.122;20.726;2023-06-19T05:25:21;18.33;;;10.93;;
60430;SDS011;46285;45.122;20.726;2023-06-19T05:35:28;13.38;;;9.40;;
60430;SDS011;46285;45.122;20.726;2023-06-19T05:45:31;14.00;;;10.02;;
60430;SDS011;46285;45.122;20.726;2023-06-19T05:55:36;13.60;;;8.90;;
60430;SDS011;46285;45.122;20.726;2023-06-19T06:05:37;15.02;;;11.98;;
60430;SDS011;46285;45.122;20.726;2023-06-19T06:15:39;16.65;;;9.20;;
60430;SDS011;46285;45.122;20.726;2023-06-19T06:25:40;11.10;;;8.32;;
60430;SDS011;46285;45.122;20.726;2023-06-19T06:35:42;11.23;;;9.05;;
60430;SDS011;46285;45.122;20.726;2023-06-19T06:45:43;13.60;;;10.77;;
60430;SDS011;46285;45.122;20.726;2023-06-19T06:55:44;10.52;;;8.80;;
60430;SDS011;46285;45.122;20.726;2023-06-19T07:05:46;13.13;;;9.35;;
60430;SDS011;46285;45.122;20.726;2023-06-19T07:15:47;12.45;;;8.20;;
60430;SDS011;46285;45.122;20.726;2023-06-19T07:25:49;11.70;;;7.80;;
60430;SDS011;46285;45.122;20.726;2023-06-19T07:35:50;14.13;;;8.33;;
60430;SDS011;46285;45.122;20.726;2023-06-19T07:45:51;9.40;;;6.77;;
60430;SDS011;46285;45.122;20.726;2023-06-19T07:55:52;8.97;;;6.63;;
60430;SDS011;46285;45.122;20.726;2023-06-19T08:05:53;10.40;;;7.10;;
60430;SDS011;46285;45.122;20.726;2023-06-19T08:15:55;12.00;;;7.18;;
60430;SDS011;46285;45.122;20.726;2023-06-19T08:25:56;9.87;;;6.50;;
60430;SDS011;46285;45.122;20.726;2023-06-19T08:35:57;8.17;;;5.83;;
60430;SDS011;46285;45.122;20.726;2023-06-19T08:46:13;9.13;;;6.50;;
60430;SDS011;46285;45.122;20.726;2023-06-19T08:56:15;11.05;;;6.32;;
60430;SDS011;46285;45.122;20.726;2023-06-19T09:06:16;10.17;;;7.00;;
60430;SDS011;46285;45.122;20.726;2023-06-19T09:16:17;10.60;;;6.35;;
60430;SDS011;46285;45.122;20.726;2023-06-19T09:26:18;15.90;;;6.57;;
60430;SDS011;46285;45.122;20.726;2023-06-19T09:36:20;7.78;;;5.55;;
60430;SDS011;46285;45.122;20.726;2023-06-19T09:46:21;8.05;;;5.22;;
60430;SDS011;46285;45.122;20.726;2023-06-19T09:56:22;8.70;;;4.93;;
60430;SDS011;46285;45.122;20.726;2023-06-19T10:06:24;10.60;;;5.78;;
60430;SDS011;46285;45.122;20.726;2023-06-19T10:16:25;7.18;;;4.97;;
60430;SDS011;46285;45.122;20.726;2023-06-19T10:26:33;8.23;;;5.60;;
60430;SDS011;46285;45.122;20.726;2023-06-19T10:36:35;8.95;;;5.60;;
60430;SDS011;46285;45.122;20.726;2023-06-19T10:46:36;8.77;;;5.70;;
60430;SDS011;46285;45.122;20.726;2023-06-19T10:56:37;7.85;;;5.57;;
60430;SDS011;46285;45.122;20.726;2023-06-19T11:06:39;9.68;;;4.65;;
60430;SDS011;46285;45.122;20.726;2023-06-19T11:16:41;8.38;;;4.78;;
60430;SDS011;46285;45.122;20.726;2023-06-19T11:26:47;12.05;;;5.70;;
60430;SDS011;46285;45.122;20.726;2023-06-19T11:36:48;12.77;;;5.03;;
60430;SDS011;46285;45.122;20.726;2023-06-19T11:46:49;9.13;;;5.30;;
60430;SDS011;46285;45.122;20.726;2023-06-19T11:56:51;10.15;;;5.30;;
60430;SDS011;46285;45.122;20.726;2023-06-19T12:06:52;9.85;;;5.60;;
60430;SDS011;46285;45.122;20.726;2023-06-19T12:16:53;8.75;;;5.85;;
60430;SDS011;46285;45.122;20.726;2023-06-19T12:26:54;10.63;;;6.00;;
60430;SDS011;46285;45.122;20.726;2023-06-19T12:36:56;10.27;;;5.57;;
60430;SDS011;46285;45.122;20.726;2023-06-19T12:47:07;11.45;;;5.28;;
60430;SDS011;46285;45.122;20.726;2023-06-19T12:57:09;9.35;;;5.30;;
60430;SDS011;46285;45.122;20.726;2023-06-19T13:07:10;7.57;;;4.57;;
60430;SDS011;46285;45.122;20.726;2023-06-19T13:17:13;11.35;;;6.05;;
60430;SDS011;46285;45.122;20.726;2023-06-19T13:27:14;8.63;;;5.13;;
60430;SDS011;46285;45.122;20.726;2023-06-19T13:37:15;8.65;;;5.47;;
60430;SDS011;46285;45.122;20.726;2023-06-19T13:47:16;10.45;;;6.25;;
60430;SDS011;46285;45.122;20.726;2023-06-19T13:57:17;10.40;;;6.13;;
60430;SDS011;46285;45.122;20.726;2023-06-19T14:07:19;10.48;;;5.43;;
60430;SDS011;46285;45.122;20.726;2023-06-19T14:17:20;8.98;;;6.25;;
60430;SDS011;46285;45.122;20.726;2023-06-19T14:27:22;8.80;;;5.03;;
60430;SDS011;46285;45.122;20.726;2023-06-19T14:37:23;13.65;;;5.65;;
60430;SDS011;46285;45.122;20.726;2023-06-19T14:47:24;9.52;;;5.65;;
60430;SDS011;46285;45.122;20.726;2023-06-19T14:57:25;12.27;;;5.93;;
60430;SDS011;46285;45.122;20.726;2023-06-19T15:07:26;8.65;;;5.68;;
60430;SDS011;46285;45.122;20.726;2023-06-19T15:17:28;8.75;;;5.70;;
60430;SDS011;46285;45.122;20.726;2023-06-19T15:27:31;9.48;;;5.70;;
60430;SDS011;46285;45.122;20.726;2023-06-19T15:37:38;11.68;;;5.65;;
60430;SDS011;46285;45.122;20.726;2023-06-19T15:57:57;11.55;;;6.43;;
60430;SDS011;46285;45.122;20.726;2023-06-19T16:07:58;9.17;;;6.47;;
60430;SDS011;46285;45.122;20.726;2023-06-19T16:18:00;10.33;;;5.90;;
60430;SDS011;46285;45.122;20.726;2023-06-19T16:28:01;8.53;;;5.87;;
60430;SDS011;46285;45.122;20.726;2023-06-19T16:48:16;12.80;;;6.57;;
60430;SDS011;46285;45.122;20.726;2023-06-19T16:58:22;10.00;;;5.43;;
60430;SDS011;46285;45.122;20.726;2023-06-19T17:08:30;13.23;;;6.70;;
60430;SDS011;46285;45.122;20.726;2023-06-19T17:18:31;14.25;;;7.35;;
60430;SDS011;46285;45.122;20.726;2023-06-19T17:28:32;12.73;;;7.70;;
60430;SDS011;46285;45.122;20.726;2023-06-19T17:38:34;13.80;;;7.03;;
60430;SDS011;46285;45.122;20.726;2023-06-19T17:48:35;10.48;;;6.70;;
60430;SDS011;46285;45.122;20.726;2023-06-19T17:58:36;12.05;;;7.10;;
60430;SDS011;46285;45.122;20.726;2023-06-19T18:08:38;12.07;;;6.97;;
60430;SDS011;46285;45.122;20.726;2023-06-19T18:18:40;12.60;;;7.00;;
60430;SDS011;46285;45.122;20.726;2023-06-19T18:28:41;13.18;;;7.57;;
60430;SDS011;46285;45.122;20.726;2023-06-19T18:38:42;13.63;;;8.25;;
60430;SDS011;46285;45.122;20.726;2023-06-19T18:48:43;22.10;;;9.65;;
60430;SDS011;46285;45.122;20.726;2023-06-19T18:58:45;18.13;;;9.90;;
60430;SDS011;46285;45.122;20.726;2023-06-19T19:08:46;18.80;;;10.07;;
60430;SDS011;46285;45.122;20.726;2023-06-19T19:18:47;26.45;;;11.00;;
60430;SDS011;46285;45.122;20.726;2023-06-19T19:28:48;20.83;;;10.68;;
60430;SDS011;46285;45.122;20.726;2023-06-19T19:38:49;15.40;;;9.85;;
60430;SDS011;46285;45.122;20.726;2023-06-19T19:48:51;12.70;;;8.68;;
60430;SDS011;46285;45.122;20.726;2023-06-19T19:58:52;15.98;;;8.75;;
60430;SDS011;46285;45.122;20.726;2023-06-19T20:08:53;13.95;;;8.98;;
60430;SDS011;46285;45.122;20.726;2023-06-19T20:18:54;14.70;;;10.15;;
60430;SDS011;46285;45.122;20.726;2023-06-19T20:28:56;15.45;;;10.50;;
60430;SDS011;46285;45.122;20.726;2023-06-19T20:38:58;16.63;;;10.10;;
60430;SDS011;46285;45.122;20.726;2023-06-19T20:49:01;14.73;;;10.27;;
60430;SDS011;46285;45.122;20.726;2023-06-19T20:59:02;16.00;;;10.25;;
60430;SDS011;46285;45.122;20.726;2023-06-19T21:09:03;10.77;;;8.65;;
60430;SDS011;46285;45.122;20.726;2023-06-19T21:19:05;11.90;;;8.88;;
60430;SDS011;46285;45.122;20.726;2023-06-19T21:29:06;12.77;;;9.57;;
60430;SDS011;46285;45.122;20.726;2023-06-19T21:39:07;11.55;;;8.55;;
60430;SDS011;46285;45.122;20.726;2023-06-19T21:49:08;12.68;;;8.35;;
60430;SDS011;46285;45.122;20.726;2023-06-19T21:59:10;12.20;;;8.55;;
60430;SDS011;46285;45.122;20.726;2023-06-19T22:09:11;11.20;;;8.00;;
60430;SDS011;46285;45.122;20.726;2023-06-19T22:19:12;10.32;;;7.95;;
60430;SDS011;46285;45.122;20.726;2023-06-19T22:29:13;13.43;;;9.63;;
60430;SDS011;46285;45.122;20.726;2023-06-19T22:39:15;17.17;;;10.15;;
60430;SDS011;46285;45.122;20.726;2023-06-19T22:49:16;15.95;;;11.95;;
60430;SDS011;46285;45.122;20.726;2023-06-19T22:59:17;14.30;;;11.30;;
60430;SDS011;46285;45.122;20.726;2023-06-19T23:09:18;15.02;;;10.38;;
60430;SDS011;46285;45.122;20.726;2023-06-19T23:19:19;27.02;;;11.48;;
60430;SDS011;46285;45.122;20.726;2023-06-19T23:29:21;15.32;;;11.35;;
60430;SDS011;46285;45.122;20.726;2023-06-19T23:39:22;14.93;;;11.68;;
60430;SDS011;46285;45.122;20.726;2023-06-19T23:49:23;15.55;;;12.43;;
60430;SDS011;46285;45.122;20.726;2023-06-19T23:59:24;15.25;;;12.95;;
